Arcadia, California
Current Conditions -  °F | °C
As of 4:45 PM on Tuesday 21 Oct 2014 (Local Time) from KEMT Reporting Station
Clear Clear  
Wind Chill: 75°   Ceiling: Unl
Heat Index: 75°   Visibility: 10mi
Dew Point: 55°   Wind: 8mph
Humidity: 50%   Direction: 230°SW
Pressure: 29.85"   Gusts: NA
Location:  34.14°N, 118.03°W
Report Text: KEMT 212345Z 23007KT 10SM CLR 24/13 A2985
Loading
Personal Weather Stations






























Interactive Weather Map
Tropical Storm Tracking
New forecast layout! Learn more

10-Day Weather Forecast

Advertisements
Track Severe Weather on mobile